Time;durP1;ratioP1;P1;durP2;ratioP2;P2;SDS_P1;SDS_P2;PMS_P1;PMS_P2;Temp;Humidity;BMP_temperature;BMP_pressure;BME280_temperature;BME280_humidity;BME280_pressure;Samples;Min_cycle;Max_cycle;Signal;HPM_P1;HPM_P2
2021/10/11 00:01:59;;;;;;;14.03;10.43;;;11.00;1.00;;;;;;5072494;28;20206;-73
2021/10/11 00:04:26;;;;;;;13.23;10.60;;;11.00;1.00;;;;;;5072678;28;20218;-75
2021/10/11 00:06:53;;;;;;;15.30;10.57;;;11.00;1.00;;;;;;5072209;28;20234;-78
2021/10/11 00:09:20;;;;;;;14.77;12.33;;;10.90;1.00;;;;;;5072419;28;20259;-74
2021/10/11 00:11:47;;;;;;;15.18;10.75;;;10.80;1.00;;;;;;5071622;28;20282;-76
2021/10/11 00:14:14;;;;;;;12.90;10.65;;;10.70;1.00;;;;;;5072299;28;20214;-74
2021/10/11 00:16:42;;;;;;;12.10;10.30;;;10.80;1.00;;;;;;5071655;28;20206;-72
2021/10/11 00:19:09;;;;;;;13.83;11.20;;;10.80;1.00;;;;;;5072168;28;20249;-73
2021/10/11 00:21:36;;;;;;;15.03;10.60;;;10.70;1.00;;;;;;5071949;28;20634;-73
2021/10/11 00:24:04;;;;;;;13.53;11.47;;;10.80;1.00;;;;;;5071822;28;20267;-74
2021/10/11 00:26:31;;;;;;;14.63;11.50;;;10.90;1.00;;;;;;5071131;28;20662;-73
2021/10/11 00:28:58;;;;;;;12.75;10.50;;;10.80;1.00;;;;;;5071853;28;20625;-73
2021/10/11 00:31:25;;;;;;;12.80;10.05;;;10.90;1.00;;;;;;5072121;28;20213;-73
2021/10/11 00:33:53;;;;;;;12.35;10.63;;;10.90;1.00;;;;;;5071425;28;20210;-73
2021/10/11 00:36:20;;;;;;;11.80;10.47;;;10.70;1.00;;;;;;5071903;28;20252;-73
2021/10/11 00:38:47;;;;;;;15.00;12.33;;;10.70;1.00;;;;;;5071216;28;20263;-73
2021/10/11 00:41:14;;;;;;;15.43;11.10;;;10.80;1.00;;;;;;5071496;28;20206;-72
2021/10/11 00:43:41;;;;;;;10.90;9.40;;;10.70;1.00;;;;;;5071001;28;20210;-73
2021/10/11 00:46:09;;;;;;;13.55;10.90;;;10.50;1.00;;;;;;5071453;28;20275;-76
2021/10/11 00:48:36;;;;;;;14.10;10.80;;;10.50;1.00;;;;;;5071385;28;20256;-78
2021/10/11 00:51:05;;;;;;;11.18;9.27;;;10.60;1.00;;;;;;5071273;28;20210;-75
2021/10/11 00:53:32;;;;;;;10.98;9.38;;;10.60;1.00;;;;;;5071265;28;20286;-75
2021/10/11 00:56:00;;;;;;;13.63;11.87;;;10.60;1.00;;;;;;5071110;28;20210;-76
2021/10/11 00:58:27;;;;;;;12.57;10.17;;;10.40;1.00;;;;;;5071620;28;20255;-75
2021/10/11 01:00:55;;;;;;;13.00;9.93;;;10.40;1.00;;;;;;5071364;28;20260;-75
2021/10/11 01:03:22;;;;;;;12.98;10.05;;;10.50;1.00;;;;;;5071269;28;20234;-76
2021/10/11 01:05:49;;;;;;;11.03;9.83;;;10.40;1.00;;;;;;5071001;28;20667;-76
2021/10/11 01:08:17;;;;;;;12.30;9.43;;;10.50;1.00;;;;;;5071029;28;20198;-75
2021/10/11 01:10:46;;;;;;;11.23;9.60;;;10.40;1.00;;;;;;5070260;28;20676;-75
2021/10/11 01:13:13;;;;;;;12.63;10.30;;;10.40;1.00;;;;;;5070303;28;20206;-75
2021/10/11 01:15:40;;;;;;;10.50;9.47;;;10.30;1.00;;;;;;5076445;28;20625;-76
2021/10/11 01:18:08;;;;;;;12.13;10.43;;;10.30;1.00;;;;;;5078858;28;20210;-75
2021/10/11 01:20:36;;;;;;;14.47;10.60;;;10.30;1.00;;;;;;5070436;28;20797;-76
2021/10/11 01:23:04;;;;;;;13.73;10.67;;;10.30;1.00;;;;;;5071117;28;20244;-75
2021/10/11 01:25:31;;;;;;;12.90;10.83;;;10.30;1.00;;;;;;5069931;28;20730;-72
2021/10/11 01:27:58;;;;;;;14.47;10.40;;;10.20;1.00;;;;;;5071274;28;20237;-72
2021/10/11 01:30:25;;;;;;;10.47;9.33;;;10.30;1.00;;;;;;5070770;28;20214;-72
2021/10/11 01:32:52;;;;;;;10.50;9.17;;;10.30;1.00;;;;;;5070585;28;20206;-75
2021/10/11 01:35:19;;;;;;;15.47;10.43;;;10.30;1.00;;;;;;5070676;28;20669;-73
2021/10/11 01:37:49;;;;;;;11.73;10.17;;;10.30;1.00;;;;;;5070083;28;20256;-74
2021/10/11 01:40:19;;;;;;;13.37;10.50;;;10.20;1.00;;;;;;5070201;28;20669;-73
2021/10/11 01:42:46;;;;;;;12.57;10.70;;;10.30;1.00;;;;;;5069909;28;20648;-75
2021/10/11 01:45:13;;;;;;;13.00;9.37;;;10.20;1.00;;;;;;5070676;28;20206;-74
2021/10/11 01:47:40;;;;;;;12.03;10.23;;;10.10;1.00;;;;;;5070124;28;20295;-73
2021/10/11 01:50:08;;;;;;;11.67;9.20;;;10.10;1.00;;;;;;5070461;28;20201;-72
2021/10/11 01:52:39;;;;;;;13.77;9.47;;;10.10;1.00;;;;;;5069608;28;20210;-73
2021/10/11 01:55:09;;;;;;;13.93;9.97;;;10.10;1.00;;;;;;5070337;28;20202;-75
2021/10/11 01:57:37;;;;;;;10.83;9.50;;;10.10;1.00;;;;;;5070081;28;20628;-73
2021/10/11 02:00:06;;;;;;;13.17;8.60;;;10.10;1.00;;;;;;5070723;28;20241;-75
2021/10/11 02:02:33;;;;;;;12.67;9.43;;;10.00;1.00;;;;;;5070127;28;20256;-75
2021/10/11 02:05:01;;;;;;;12.20;9.13;;;10.00;1.00;;;;;;5070281;28;20244;-75
2021/10/11 02:07:28;;;;;;;11.67;10.00;;;10.10;1.00;;;;;;5070649;28;20290;-77
2021/10/11 02:09:55;;;;;;;10.77;9.47;;;10.10;1.00;;;;;;5070378;28;20666;-75
2021/10/11 02:12:23;;;;;;;13.97;10.00;;;10.10;1.00;;;;;;5070253;28;20625;-75
2021/10/11 02:14:50;;;;;;;10.87;9.17;;;10.00;1.00;;;;;;5069629;28;20665;-77
2021/10/11 02:17:17;;;;;;;10.60;9.27;;;9.90;1.00;;;;;;5070180;28;20202;-74
2021/10/11 02:19:44;;;;;;;12.73;9.43;;;9.80;1.00;;;;;;5069900;28;20674;-75
2021/10/11 02:22:11;;;;;;;14.10;9.43;;;9.90;1.00;;;;;;5069736;28;20251;-76
2021/10/11 02:24:38;;;;;;;15.23;10.03;;;9.90;1.00;;;;;;5070232;28;20255;-75
2021/10/11 02:27:05;;;;;;;13.27;9.47;;;9.90;1.00;;;;;;5073148;28;20290;-75
2021/10/11 02:29:34;;;;;;;13.07;9.57;;;9.90;1.00;;;;;;5073846;28;20251;-76
2021/10/11 02:32:00;;;;;;;11.90;9.07;;;9.90;1.00;;;;;;5073807;28;20327;-75
2021/10/11 02:34:27;;;;;;;13.10;10.03;;;9.80;1.00;;;;;;5074789;28;20198;-76
2021/10/11 02:36:54;;;;;;;10.63;9.10;;;9.90;1.00;;;;;;5074377;28;20267;-76
2021/10/11 02:39:21;;;;;;;14.23;10.63;;;9.80;1.00;;;;;;5073909;28;20251;-73
2021/10/11 02:41:48;;;;;;;14.73;10.63;;;9.80;1.00;;;;;;5073816;28;20581;-73
2021/10/11 02:44:15;;;;;;;11.57;9.93;;;9.80;1.00;;;;;;5073908;28;20206;-74
2021/10/11 02:46:44;;;;;;;11.23;9.10;;;9.80;1.00;;;;;;5073407;28;20778;-73
2021/10/11 02:49:11;;;;;;;11.27;9.63;;;9.80;1.00;;;;;;5073841;28;20206;-73
2021/10/11 02:51:38;;;;;;;15.10;10.17;;;9.90;1.00;;;;;;5073356;28;20202;-75
2021/10/11 02:54:05;;;;;;;11.67;9.63;;;9.80;1.00;;;;;;5073825;28;20206;-73
2021/10/11 02:56:32;;;;;;;14.03;10.03;;;9.80;1.00;;;;;;5073245;28;20198;-73
2021/10/11 02:58:59;;;;;;;11.73;8.60;;;9.70;1.00;;;;;;5071240;28;20210;-75
2021/10/11 03:01:26;;;;;;;13.27;9.33;;;9.70;1.00;;;;;;5073761;28;20267;-74
2021/10/11 03:03:54;;;;;;;10.83;9.20;;;9.70;1.00;;;;;;5073253;28;20222;-77
2021/10/11 03:06:21;;;;;;;13.50;9.60;;;9.80;1.00;;;;;;5072969;28;20716;-74
2021/10/11 03:08:48;;;;;;;12.00;9.33;;;9.80;1.00;;;;;;5073240;28;20210;-73
2021/10/11 03:11:15;;;;;;;11.27;9.03;;;9.70;1.00;;;;;;5073464;28;20251;-73
2021/10/11 03:13:42;;;;;;;11.37;9.13;;;9.70;1.00;;;;;;5072917;28;20206;-73
2021/10/11 03:16:09;;;;;;;10.87;8.63;;;9.60;1.00;;;;;;5072914;28;20255;-73
2021/10/11 03:18:36;;;;;;;11.03;9.40;;;9.70;1.00;;;;;;5073202;28;20225;-73
2021/10/11 03:21:05;;;;;;;9.87;8.10;;;9.60;1.00;;;;;;5073044;28;20287;-73
2021/10/11 03:23:32;;;;;;;13.80;9.93;;;9.60;1.00;;;;;;5072997;28;20198;-77
2021/10/11 03:25:59;;;;;;;9.93;8.87;;;9.60;1.00;;;;;;5072978;28;20252;-73
2021/10/11 03:28:26;;;;;;;13.23;9.70;;;9.60;1.00;;;;;;5073676;28;20279;-76
2021/10/11 03:30:53;;;;;;;11.40;9.77;;;9.60;1.00;;;;;;5072742;28;20210;-77
2021/10/11 03:33:20;;;;;;;10.37;7.83;;;9.70;1.00;;;;;;5072891;28;20206;-74
2021/10/11 03:35:47;;;;;;;9.97;8.37;;;9.60;1.00;;;;;;5072636;28;20289;-74
2021/10/11 03:38:15;;;;;;;10.80;8.10;;;9.60;1.00;;;;;;5072468;28;20634;-75
2021/10/11 03:40:42;;;;;;;10.90;9.40;;;9.50;1.00;;;;;;5072483;28;20210;-76
2021/10/11 03:43:09;;;;;;;10.67;9.13;;;9.40;1.00;;;;;;5072625;28;20744;-75
2021/10/11 03:45:36;;;;;;;11.57;9.30;;;9.40;1.00;;;;;;5072450;28;20747;-78
2021/10/11 03:48:03;;;;;;;10.93;8.90;;;9.40;1.00;;;;;;5072698;28;20230;-77
2021/10/11 03:50:30;;;;;;;11.23;8.33;;;9.40;1.00;;;;;;5058227;28;20255;-78
2021/10/11 03:52:58;;;;;;;11.97;8.40;;;9.40;1.00;;;;;;5072945;28;20256;-78
2021/10/11 03:55:26;;;;;;;9.40;8.27;;;9.40;1.00;;;;;;5072542;28;20199;-76
2021/10/11 03:57:53;;;;;;;11.33;8.83;;;9.40;1.00;;;;;;5072601;28;20275;-77
2021/10/11 04:00:20;;;;;;;10.40;8.50;;;9.40;1.00;;;;;;5072364;28;20264;-77
2021/10/11 04:02:47;;;;;;;11.43;8.73;;;9.40;1.00;;;;;;5072250;28;20206;-76
2021/10/11 04:05:14;;;;;;;9.60;7.80;;;9.40;1.00;;;;;;5071989;28;20225;-76
2021/10/11 04:07:42;;;;;;;11.40;9.43;;;9.40;1.00;;;;;;5071924;28;20233;-77
2021/10/11 04:10:11;;;;;;;11.13;9.10;;;9.30;1.00;;;;;;5072251;28;20593;-77
2021/10/11 04:12:40;;;;;;;9.17;8.00;;;9.40;1.00;;;;;;5071837;28;20259;-76
2021/10/11 04:15:08;;;;;;;12.23;8.90;;;9.30;1.00;;;;;;5072338;28;20214;-75
2021/10/11 04:17:38;;;;;;;12.23;9.27;;;9.20;1.00;;;;;;5071531;28;20206;-76
2021/10/11 04:20:07;;;;;;;10.57;9.43;;;9.20;1.00;;;;;;5072592;28;20657;-72
2021/10/11 04:22:33;;;;;;;11.97;9.77;;;9.20;1.00;;;;;;5071440;28;20297;-71
2021/10/11 04:25:00;;;;;;;14.07;8.97;;;9.20;1.00;;;;;;5072293;28;20202;-71
2021/10/11 04:27:28;;;;;;;11.73;8.50;;;9.20;1.00;;;;;;5071956;28;20280;-71
2021/10/11 04:29:56;;;;;;;10.93;9.20;;;9.20;1.00;;;;;;5072360;28;20264;-71
2021/10/11 04:32:23;;;;;;;11.60;8.97;;;9.20;1.00;;;;;;5071613;28;20708;-72
2021/10/11 04:34:50;;;;;;;10.73;8.90;;;9.20;1.00;;;;;;5071690;28;20271;-71
2021/10/11 04:37:17;;;;;;;10.23;8.67;;;9.10;1.00;;;;;;5072089;28;20210;-75
2021/10/11 04:39:44;;;;;;;9.70;8.70;;;9.20;1.00;;;;;;5071200;28;20739;-78
2021/10/11 04:42:11;;;;;;;9.93;8.60;;;9.10;1.00;;;;;;5071655;28;20621;-76
2021/10/11 04:44:38;;;;;;;12.00;9.60;;;9.00;1.00;;;;;;5071213;28;20677;-75
2021/10/11 04:47:07;;;;;;;11.10;9.43;;;9.10;1.00;;;;;;5071463;28;20255;-75
2021/10/11 04:49:34;;;;;;;10.67;9.13;;;9.10;1.00;;;;;;5070067;28;20655;-76
2021/10/11 04:52:01;;;;;;;10.37;9.33;;;9.10;1.00;;;;;;5071381;28;20255;-76
2021/10/11 04:54:28;;;;;;;12.03;9.43;;;9.10;1.00;;;;;;5071809;28;20202;-75
2021/10/11 04:56:56;;;;;;;9.97;8.70;;;9.10;1.00;;;;;;5071291;28;20271;-76
2021/10/11 04:59:24;;;;;;;13.83;9.90;;;9.10;1.00;;;;;;5071448;28;20206;-75
2021/10/11 05:01:51;;;;;;;9.83;8.73;;;9.10;1.00;;;;;;5070445;28;20593;-75
2021/10/11 05:04:19;;;;;;;13.97;9.67;;;9.00;1.00;;;;;;5071298;28;20846;-75
2021/10/11 05:06:46;;;;;;;14.97;9.83;;;9.00;1.00;;;;;;5070666;28;20205;-75
2021/10/11 05:09:13;;;;;;;10.27;9.23;;;8.90;1.00;;;;;;5071167;28;20225;-76
2021/10/11 05:11:40;;;;;;;12.07;9.63;;;8.90;1.00;;;;;;5070989;28;20264;-76
2021/10/11 05:14:07;;;;;;;12.37;10.57;;;8.80;1.00;;;;;;5071025;28;20214;-75
2021/10/11 05:16:35;;;;;;;13.17;10.07;;;8.60;1.00;;;;;;5070376;28;20206;-76
2021/10/11 05:19:02;;;;;;;14.13;9.17;;;8.70;1.00;;;;;;5071026;28;20570;-76
2021/10/11 05:21:31;;;;;;;13.07;10.63;;;8.80;1.00;;;;;;5070621;28;20201;-76
2021/10/11 05:23:59;;;;;;;11.00;9.83;;;8.90;1.00;;;;;;5071217;28;20214;-78
2021/10/11 05:26:27;;;;;;;12.37;9.07;;;8.80;1.00;;;;;;5071078;28;20202;-76
2021/10/11 05:28:54;;;;;;;11.10;9.93;;;8.70;1.00;;;;;;5070619;28;20237;-74
2021/10/11 05:31:21;;;;;;;10.50;8.40;;;8.70;1.00;;;;;;5070137;28;20255;-74
2021/10/11 05:33:48;;;;;;;12.10;9.33;;;8.60;1.00;;;;;;5070306;28;20626;-74
2021/10/11 05:36:15;;;;;;;12.43;9.53;;;8.70;1.00;;;;;;5070686;28;20203;-74
2021/10/11 05:38:43;;;;;;;11.57;9.93;;;8.60;1.00;;;;;;5070234;28;20214;-76
2021/10/11 05:41:10;;;;;;;11.03;9.10;;;8.80;1.00;;;;;;5070402;28;20252;-76
2021/10/11 05:43:37;;;;;;;9.73;8.50;;;8.80;1.00;;;;;;5070292;28;20738;-75
2021/10/11 05:46:04;;;;;;;11.63;8.50;;;8.90;1.00;;;;;;5070475;28;20275;-76
2021/10/11 05:48:32;;;;;;;12.63;9.50;;;8.90;1.00;;;;;;5070509;28;20238;-75
2021/10/11 05:50:59;;;;;;;11.03;9.03;;;8.90;1.00;;;;;;5070658;28;20213;-75
2021/10/11 05:53:26;;;;;;;9.87;8.77;;;8.90;1.00;;;;;;5070826;28;20270;-77
2021/10/11 05:55:54;;;;;;;11.07;9.70;;;8.90;1.00;;;;;;5070223;28;20206;-73
2021/10/11 05:58:21;;;;;;;12.80;10.03;;;8.90;1.00;;;;;;5070333;28;20210;-77
2021/10/11 06:00:48;;;;;;;14.50;9.00;;;8.80;1.00;;;;;;5069649;28;20206;-77
2021/10/11 06:03:15;;;;;;;15.60;9.70;;;8.80;1.00;;;;;;5070338;28;20256;-77
2021/10/11 06:05:42;;;;;;;12.93;9.70;;;8.80;1.00;;;;;;5069594;28;20221;-77
2021/10/11 06:08:09;;;;;;;15.70;10.00;;;8.90;1.00;;;;;;5070178;28;20782;-74
2021/10/11 06:10:37;;;;;;;12.00;9.73;;;8.90;1.00;;;;;;5069647;28;20207;-75
2021/10/11 06:13:06;;;;;;;12.57;9.27;;;8.80;1.00;;;;;;5070633;28;20292;-71
2021/10/11 06:15:33;;;;;;;11.83;10.07;;;8.80;1.00;;;;;;5069725;28;20210;-74
2021/10/11 06:18:00;;;;;;;13.23;9.67;;;8.80;1.00;;;;;;5070629;28;20255;-78
2021/10/11 06:20:27;;;;;;;12.47;9.73;;;8.90;1.00;;;;;;5073039;28;20214;-80
2021/10/11 06:22:54;;;;;;;13.23;10.60;;;8.90;1.00;;;;;;5070167;28;20264;-79
2021/10/11 06:25:21;;;;;;;20.07;13.00;;;8.90;1.00;;;;;;5070468;28;20206;-80
2021/10/11 06:27:48;;;;;;;17.73;11.70;;;9.00;1.00;;;;;;5069326;28;20693;-78
2021/10/11 06:30:16;;;;;;;15.53;10.47;;;9.00;1.00;;;;;;5070406;28;20255;-81
2021/10/11 06:32:43;;;;;;;12.53;10.67;;;9.00;1.00;;;;;;5069879;28;20206;-81
2021/10/11 06:35:10;;;;;;;13.20;10.37;;;8.90;1.00;;;;;;5070380;28;20209;-77
2021/10/11 06:37:38;;;;;;;15.43;10.47;;;8.90;1.00;;;;;;5069466;28;20263;-78
2021/10/11 06:40:06;;;;;;;13.60;11.13;;;9.00;1.00;;;;;;5070201;28;20214;-79
2021/10/11 06:42:33;;;;;;;15.47;10.50;;;9.00;1.00;;;;;;5069412;28;20678;-79
2021/10/11 06:45:00;;;;;;;15.03;10.40;;;8.90;1.00;;;;;;5070138;28;20198;-78
2021/10/11 06:47:28;;;;;;;14.83;11.17;;;8.90;1.00;;;;;;5070441;28;20260;-79
2021/10/11 06:49:55;;;;;;;14.30;9.60;;;8.90;1.00;;;;;;5070231;28;20256;-81
2021/10/11 06:52:22;;;;;;;18.17;10.90;;;9.00;1.00;;;;;;5069797;28;20678;-78
2021/10/11 06:54:49;;;;;;;13.50;10.03;;;9.10;1.00;;;;;;5072066;28;20210;-74
2021/10/11 06:57:16;;;;;;;17.43;9.30;;;9.20;1.00;;;;;;5069755;28;20217;-77
2021/10/11 06:59:43;;;;;;;13.17;9.90;;;9.30;1.00;;;;;;5069567;28;20640;-77
2021/10/11 07:02:10;;;;;;;15.60;11.50;;;9.50;1.00;;;;;;5070752;28;20259;-76
2021/10/11 07:04:38;;;;;;;15.13;10.70;;;9.60;1.00;;;;;;5070916;28;20222;-75
2021/10/11 07:07:06;;;;;;;13.93;9.47;;;9.60;1.00;;;;;;5070156;28;20203;-75
2021/10/11 07:09:33;;;;;;;26.87;12.17;;;9.90;1.00;;;;;;5069717;28;20242;-73
2021/10/11 07:12:00;;;;;;;18.57;11.43;;;10.00;1.00;;;;;;5072215;28;20198;-77
2021/10/11 07:14:27;;;;;;;13.87;9.70;;;10.10;1.00;;;;;;5069466;28;20627;-76
2021/10/11 07:16:54;;;;;;;16.27;9.23;;;10.10;1.00;;;;;;5074476;28;20214;-77
2021/10/11 07:19:21;;;;;;;11.77;8.80;;;10.20;1.00;;;;;;5077307;28;20255;-74
2021/10/11 07:21:51;;;;;;;13.90;10.53;;;10.10;1.00;;;;;;5079523;28;20254;-76
2021/10/11 07:24:18;;;;;;;17.60;11.07;;;10.10;1.00;;;;;;5079935;28;20206;-78
2021/10/11 07:26:45;;;;;;;14.37;10.70;;;10.40;1.00;;;;;;5076894;28;20210;-78
2021/10/11 07:29:12;;;;;;;13.07;9.83;;;10.70;1.00;;;;;;5082670;28;20225;-80
2021/10/11 07:31:39;;;;;;;13.70;9.47;;;10.70;1.00;;;;;;5078048;28;20256;-77
2021/10/11 07:34:06;;;;;;;14.23;10.33;;;10.70;1.00;;;;;;5064420;28;20541;-77
2021/10/11 07:36:34;;;;;;;13.70;9.83;;;10.70;1.00;;;;;;5065899;28;20624;-75
2021/10/11 07:39:03;;;;;;;10.97;9.87;;;10.70;1.00;;;;;;5071516;28;20206;-77
2021/10/11 07:41:30;;;;;;;17.57;11.27;;;10.90;1.00;;;;;;5080535;28;20202;-77
2021/10/11 07:43:57;;;;;;;15.53;10.27;;;11.00;1.00;;;;;;5088187;28;20630;-77
2021/10/11 07:46:25;;;;;;;14.57;9.40;;;11.20;1.00;;;;;;5085154;28;20626;-77
2021/10/11 07:48:52;;;;;;;15.43;10.47;;;11.40;1.00;;;;;;5087608;28;20244;-77
2021/10/11 07:51:19;;;;;;;16.57;9.97;;;11.60;1.00;;;;;;5087402;28;20210;-78
2021/10/11 07:53:46;;;;;;;13.47;10.10;;;11.60;1.00;;;;;;5082905;28;20236;-78
2021/10/11 07:56:14;;;;;;;11.17;9.70;;;11.60;1.00;;;;;;5069150;28;20264;-72
2021/10/11 07:58:41;;;;;;;13.37;10.47;;;11.70;1.00;;;;;;5070352;28;20206;-74
2021/10/11 08:01:08;;;;;;;14.43;9.40;;;11.80;1.00;;;;;;5073210;28;20310;-74
2021/10/11 08:03:35;;;;;;;15.93;9.30;;;12.00;1.00;;;;;;5074230;28;20206;-79
2021/10/11 08:06:04;;;;;;;15.77;10.47;;;12.20;1.00;;;;;;5073982;28;20210;-75
2021/10/11 08:08:31;;;;;;;12.57;9.57;;;12.20;1.00;;;;;;5072234;28;20242;-74
2021/10/11 08:10:59;;;;;;;12.90;9.67;;;12.30;1.00;;;;;;5072526;28;20206;-74
2021/10/11 08:13:27;;;;;;;17.05;10.32;;;12.30;1.00;;;;;;5076616;28;20637;-75
2021/10/11 08:15:54;;;;;;;14.35;9.93;;;12.30;1.00;;;;;;5082640;28;20230;-76
2021/10/11 08:18:21;;;;;;;14.80;11.25;;;12.40;1.00;;;;;;5089035;28;20206;-75
2021/10/11 08:20:48;;;;;;;12.20;10.23;;;12.50;1.00;;;;;;5083841;28;20215;-78
2021/10/11 08:23:15;;;;;;;11.35;9.65;;;12.60;1.00;;;;;;5074027;28;20256;-80
2021/10/11 08:25:42;;;;;;;14.10;10.25;;;12.70;1.00;;;;;;5076529;28;20669;-80
2021/10/11 08:28:10;;;;;;;14.15;10.68;;;12.80;1.00;;;;;;5075120;28;20210;-79
2021/10/11 08:30:38;;;;;;;13.00;9.97;;;12.80;1.00;;;;;;5078428;28;20213;-79
2021/10/11 08:33:05;;;;;;;12.02;9.77;;;12.90;1.00;;;;;;5071981;28;20203;-81
2021/10/11 08:35:32;;;;;;;12.27;8.97;;;13.30;1.00;;;;;;5071363;28;20678;-81
2021/10/11 08:38:00;;;;;;;11.88;9.13;;;13.20;1.00;;;;;;5071442;28;20631;-80
2021/10/11 08:40:27;;;;;;;10.95;9.00;;;13.20;1.00;;;;;;5075664;28;20666;-80
2021/10/11 08:42:54;;;;;;;11.73;9.80;;;13.20;1.00;;;;;;5071322;28;20740;-80
2021/10/11 08:45:21;;;;;;;10.90;9.23;;;13.40;1.00;;;;;;5071702;28;20255;-80
2021/10/11 08:47:49;;;;;;;14.32;9.73;;;13.40;1.00;;;;;;5088220;28;20204;-81
2021/10/11 08:50:17;;;;;;;13.45;10.00;;;13.40;1.00;;;;;;5087828;28;20225;-80
2021/10/11 08:52:45;;;;;;;11.55;10.05;;;13.30;1.00;;;;;;5089176;28;20635;-81
2021/10/11 08:55:12;;;;;;;11.85;9.40;;;13.40;1.00;;;;;;5085105;28;20589;-80
2021/10/11 08:57:39;;;;;;;12.57;9.52;;;13.60;1.00;;;;;;5071353;28;20303;-78
2021/10/11 09:00:10;;;;;;;11.63;9.68;;;13.80;1.00;;;;;;5071292;28;20202;-82
2021/10/11 09:02:37;;;;;;;11.25;9.30;;;13.90;1.00;;;;;;5070923;28;20202;-79
2021/10/11 09:05:06;;;;;;;11.63;8.43;;;14.00;1.00;;;;;;5071138;28;20902;-80
2021/10/11 09:07:33;;;;;;;9.88;8.48;;;14.20;1.00;;;;;;5069776;28;20626;-80
2021/10/11 09:10:01;;;;;;;14.60;9.57;;;14.30;1.00;;;;;;5070965;28;20238;-77
2021/10/11 09:12:30;;;;;;;10.15;9.07;;;14.50;1.00;;;;;;5071207;28;20202;-79
2021/10/11 09:15:08;;;;;;;11.40;8.35;;;14.50;99.90;;;;;;5071509;28;20673;-81
2021/10/11 09:17:38;;;;;;;10.50;7.57;;;14.60;99.90;;;;;;5070401;28;20735;-81
2021/10/11 09:20:15;;;;;;;12.65;10.20;;;14.60;99.90;;;;;;5071068;28;20267;-81
2021/10/11 09:22:44;;;;;;;10.52;9.25;;;14.60;99.90;;;;;;5070496;28;20213;-81
2021/10/11 09:25:14;;;;;;;12.27;8.80;;;14.70;99.90;;;;;;5071285;28;20308;-80
2021/10/11 09:27:46;;;;;;;11.98;10.15;;;14.80;99.90;;;;;;5070586;28;20210;-79
2021/10/11 09:30:15;;;;;;;10.65;8.23;;;14.90;99.90;;;;;;5070918;28;20283;-78
2021/10/11 09:32:43;;;;;;;11.50;8.48;;;15.10;99.90;;;;;;5070464;28;20274;-83
2021/10/11 09:35:11;;;;;;;12.57;8.98;;;15.40;99.90;;;;;;5070638;28;20213;-82
2021/10/11 09:37:40;;;;;;;12.35;9.02;;;15.50;99.90;;;;;;5069913;28;20213;-77
2021/10/11 09:40:09;;;;;;;10.48;9.45;;;15.60;99.90;;;;;;5071078;28;20256;-80
2021/10/11 09:42:36;;;;;;;11.45;8.88;;;15.70;99.90;;;;;;5070692;28;20210;-77
2021/10/11 09:45:06;;;;;;;11.10;8.75;;;16.00;99.90;;;;;;5071002;28;20626;-82
2021/10/11 09:47:34;;;;;;;10.27;8.50;;;16.80;99.90;;;;;;5070270;28;20202;-79
2021/10/11 09:50:04;;;;;;;11.00;8.93;;;17.20;99.90;;;;;;5070446;28;20327;-79
2021/10/11 09:52:31;;;;;;;9.35;7.55;;;17.10;99.90;;;;;;5069838;28;20206;-78
2021/10/11 09:55:00;;;;;;;9.45;8.38;;;16.70;99.90;;;;;;5070038;28;20297;-81
2021/10/11 09:57:27;;;;;;;7.43;6.78;;;16.80;99.90;;;;;;5071163;28;20210;-82
2021/10/11 09:59:54;;;;;;;8.98;7.65;;;17.00;99.90;;;;;;5082389;28;20263;-84
2021/10/11 10:02:26;;;;;;;8.55;7.75;;;17.20;99.90;;;;;;5070913;28;20276;-82
2021/10/11 10:04:56;;;;;;;7.47;6.75;;;17.70;99.90;;;;;;5065787;28;20210;-79
2021/10/11 10:07:27;;;;;;;7.68;6.88;;;17.40;99.90;;;;;;5070353;28;20206;-75
2021/10/11 10:09:56;;;;;;;9.18;7.15;;;17.70;99.90;;;;;;5070850;28;20226;-77
2021/10/11 10:12:25;;;;;;;7.53;6.40;;;19.30;99.90;;;;;;5072257;28;20681;-81
2021/10/11 10:15:00;;;;;;;8.32;7.53;;;20.00;99.90;;;;;;5071630;28;20673;-79
2021/10/11 10:17:34;;;;;;;7.25;6.55;;;18.50;99.90;;;;;;5074698;28;20244;-82
2021/10/11 10:20:11;;;;;;;7.15;6.45;;;17.90;99.90;;;;;;5072811;28;20288;-81
2021/10/11 10:22:51;;;;;;;7.32;6.32;;;17.50;99.90;;;;;;5070288;28;20232;-84
2021/10/11 10:25:18;;;;;;;7.22;6.15;;;17.40;99.90;;;;;;5074592;28;20293;-84
2021/10/11 10:27:49;;;;;;;9.07;6.55;;;17.40;99.90;;;;;;5076208;28;20252;-83
2021/10/11 10:30:18;;;;;;;7.68;6.90;;;17.20;99.90;;;;;;5073998;28;20269;-82
2021/10/11 10:32:57;;;;;;;7.75;6.95;;;17.20;99.90;;;;;;5069825;28;20210;-78
2021/10/11 10:35:25;;;;;;;6.90;6.15;;;17.20;99.90;;;;;;5070036;28;20202;-83
2021/10/11 10:37:52;;;;;;;8.20;6.15;;;17.20;99.90;;;;;;5069503;28;20260;-77
2021/10/11 10:40:20;;;;;;;7.65;6.85;;;17.40;99.90;;;;;;5070404;28;20279;-79
2021/10/11 10:42:49;;;;;;;7.90;6.85;;;17.30;99.90;;;;;;5069552;28;20256;-80
2021/10/11 10:45:20;;;;;;;9.25;6.93;;;17.30;99.90;;;;;;5070397;28;20256;-82
2021/10/11 10:47:49;;;;;;;7.68;6.60;;;17.40;99.90;;;;;;5071698;28;20684;-78
2021/10/11 10:50:19;;;;;;;7.00;6.30;;;17.40;99.90;;;;;;5074144;28;20291;-79
2021/10/11 10:52:50;;;;;;;14.30;7.07;;;17.40;99.90;;;;;;5073304;28;20206;-84
2021/10/11 10:55:17;;;;;;;7.32;6.57;;;17.50;99.90;;;;;;5064008;28;20201;-82
2021/10/11 10:57:45;;;;;;;7.13;6.43;;;17.50;99.90;;;;;;5073085;28;20743;-77
2021/10/11 11:00:17;;;;;;;6.20;5.55;;;17.60;99.90;;;;;;5073591;28;20198;-81
2021/10/11 11:02:49;;;;;;;7.50;6.80;;;17.60;99.90;;;;;;5073023;28;20255;-77
2021/10/11 11:05:18;;;;;;;7.40;6.40;;;17.70;99.90;;;;;;5072837;28;20306;-77
2021/10/11 11:07:47;;;;;;;7.82;6.50;;;17.70;99.90;;;;;;5072635;28;20206;-79
2021/10/11 11:10:16;;;;;;;8.45;5.63;;;17.80;99.90;;;;;;5073972;28;20230;-79
2021/10/11 11:12:44;;;;;;;8.30;6.63;;;17.90;99.90;;;;;;5073163;28;20252;-80
2021/10/11 11:15:23;;;;;;;9.52;7.10;;;17.80;99.90;;;;;;5067420;28;20255;-79
2021/10/11 11:17:50;;;;;;;8.10;7.07;;;17.80;99.90;;;;;;5072846;28;20708;-77
2021/10/11 11:20:20;;;;;;;9.70;7.50;;;17.80;99.90;;;;;;5073627;28;20256;-77
2021/10/11 11:22:49;;;;;;;7.50;6.57;;;17.80;99.90;;;;;;5075361;28;20202;-77
2021/10/11 11:25:17;;;;;;;7.53;6.65;;;17.90;99.90;;;;;;5089573;28;20231;-79
2021/10/11 11:27:45;;;;;;;8.40;6.07;;;17.90;99.90;;;;;;5085260;28;20678;-78
2021/10/11 11:30:15;;;;;;;7.55;6.13;;;18.00;99.90;;;;;;5091461;28;20229;-78
2021/10/11 11:32:49;;;;;;;8.25;5.38;;;17.90;99.90;;;;;;5089318;28;20735;-76
2021/10/11 11:35:17;;;;;;;6.05;5.40;;;17.90;99.90;;;;;;5073236;28;20236;-79
2021/10/11 11:37:46;;;;;;;8.35;6.63;;;18.00;99.90;;;;;;5072487;28;20254;-78
2021/10/11 11:40:14;;;;;;;7.80;5.97;;;18.10;99.90;;;;;;5073032;28;20198;-78
2021/10/11 11:42:41;;;;;;;7.45;6.75;;;18.30;99.90;;;;;;5071370;28;20202;-78
2021/10/11 11:45:09;;;;;;;6.65;6.05;;;18.40;99.90;;;;;;5072923;28;20272;-78
2021/10/11 11:47:37;;;;;;;6.00;5.40;;;18.30;99.90;;;;;;5072199;28;20670;-78
2021/10/11 11:50:16;;;;;;;7.00;6.22;;;18.30;99.90;;;;;;5072434;28;20226;-77
2021/10/11 11:52:46;;;;;;;8.02;6.22;;;18.30;99.90;;;;;;5072195;28;20704;-78
2021/10/11 11:55:13;;;;;;;8.93;6.00;;;18.40;99.90;;;;;;5072207;28;20213;-77
2021/10/11 11:57:44;;;;;;;7.93;5.57;;;18.30;99.90;;;;;;5071962;28;20635;-77
2021/10/11 12:00:13;;;;;;;6.07;5.47;;;18.40;99.90;;;;;;5072364;28;20251;-77
2021/10/11 12:02:45;;;;;;;6.18;5.57;;;18.30;99.90;;;;;;5072199;28;20268;-77
2021/10/11 12:05:12;;;;;;;7.75;5.53;;;18.30;99.90;;;;;;5072163;28;20242;-76
2021/10/11 12:07:43;;;;;;;7.00;5.95;;;18.20;99.90;;;;;;5058292;28;20256;-78
2021/10/11 12:10:16;;;;;;;7.45;5.43;;;18.30;99.90;;;;;;5072650;28;20321;-77
2021/10/11 12:12:43;;;;;;;7.93;6.40;;;18.50;99.90;;;;;;5071850;28;20228;-77
2021/10/11 12:15:22;;;;;;;6.43;5.68;;;18.50;99.90;;;;;;5079213;28;20205;-78
2021/10/11 12:18:01;;;;;;;5.60;5.07;;;18.50;99.90;;;;;;5081572;28;20724;-76
2021/10/11 12:20:39;;;;;;;5.40;4.90;;;18.60;99.90;;;;;;5086161;28;20206;-77
2021/10/11 12:23:06;;;;;;;8.43;6.00;;;18.50;99.90;;;;;;5085580;28;20205;-76
2021/10/11 12:25:33;;;;;;;7.03;5.35;;;18.50;99.90;;;;;;5090979;28;20205;-76
2021/10/11 12:28:09;;;;;;;6.60;5.45;;;18.40;99.90;;;;;;5091245;28;20205;-77
2021/10/11 12:30:36;;;;;;;6.10;5.43;;;18.50;99.90;;;;;;5083128;28;20233;-77
2021/10/11 12:33:11;;;;;;;6.30;5.00;;;18.60;99.90;;;;;;5084187;28;20214;-77
2021/10/11 12:35:38;;;;;;;6.57;4.90;;;18.50;99.90;;;;;;5071431;28;20213;-77
2021/10/11 12:38:07;;;;;;;7.18;5.28;;;18.60;99.90;;;;;;5071374;28;20232;-78
2021/10/11 12:40:34;;;;;;;6.40;5.13;;;18.60;99.90;;;;;;5071657;28;20318;-77
2021/10/11 12:43:12;;;;;;;8.63;5.88;;;18.60;99.90;;;;;;5071561;28;20240;-76
2021/10/11 12:45:40;;;;;;;6.45;5.13;;;18.70;99.90;;;;;;5071332;28;20237;-77
2021/10/11 12:48:08;;;;;;;9.68;6.00;;;18.60;99.90;;;;;;5085502;28;20630;-77
2021/10/11 12:50:35;;;;;;;7.18;5.53;;;18.70;99.90;;;;;;5082788;28;20645;-77
2021/10/11 12:53:03;;;;;;;6.45;5.15;;;18.70;99.90;;;;;;5083916;28;20206;-77